Weather History for Darlington, SC

Change the Weather History Date:

Friday, May 3, 2013

  Actual Average (KFLO) Record (KFLO)
Temperature  
Mean Temperature 63 °F 68 °F  
Max Temperature 71 °F 80 °F 94 °F (1959)
Min Temperature 55 °F 55 °F 42 °F (1963)
Degree Days  
Heating Degree Days 2 2  
Month to date heating degree days 6  
Since 1 July heating degree days 2506  
Cooling Degree Days 0 4  
Month to date cooling degree days 12  
Year to date cooling degree days 108  
Growing Degree Days 13 (Base 50)    
Moisture  
Dew Point 51 °F    
Average Humidity 69    
Maximum Humidity 88    
Minimum Humidity 48    
Precipitation  
Precipitation 0.01 in 0.09 in 1.06 in (2007)
Month to date precipitation 0.26  
Year to date precipitation 12.36  
Sea Level Pressure  
Sea Level Pressure 30.16 in    
Wind  
Wind Speed 11 mph (NE)    
Max Wind Speed 21 mph    
Max Gust Speed 28 mph    
Visibility 10 miles    
Events      
T = Trace of Precipitation, MM = Missing Value Source: NWS Daily Summary

Daily Weather History Graph

Daily Weather History Graph

Search for Another Location

Airport:

Trip Planner

Search our weather history database for the weather conditions in past years. The results will help you decide how hot, cold, wet, or windy it might be!

Date:

Astronomy

May. 03, 2013 Rise Set
Actual Time 6:27 AM EDT 8:05 PM EDT
Civil Twilight 6:00 AM EDT 8:32 PM EDT
Nautical Twilight 5:27 AM EDT 9:05 PM EDT
Astronomical Twilight 4:53 AM EDT 9:39 PM EDT
Moon 2:34 AM EDT (5/3) 2:13 PM EDT (5/3)
Length of Visible Light 14h 32m
Length of Day
13h 38m
Last Quarter, 37% of the Moon is Illuminated
May 3
Last Quarter
May 9
New
May 18
First Quarter
May 25
Full
May 31
Last Quarter

Hourly Weather History & Observations

Time (EDT) Temp. Dew Point Humidity Pressure Visibility Wind Dir Wind Speed Gust Speed Precip Events Conditions
12:15 AM 60.8 °F 55.4 °F 82% 30.22 in 10.0 mi NE 10.4 mph - N/A   Scattered Clouds
12:35 AM 60.8 °F 53.6 °F 77% 30.21 in 10.0 mi NE 11.5 mph - N/A   Scattered Clouds
12:55 AM 60.8 °F 53.6 °F 77% 30.20 in 10.0 mi NE 10.4 mph - N/A   Clear
1:15 AM 60.8 °F 53.6 °F 77% 30.20 in 10.0 mi NE 10.4 mph - N/A   Clear
1:35 AM 60.8 °F 53.6 °F 77% 30.20 in 10.0 mi NE 9.2 mph - N/A   Clear
1:55 AM 59.0 °F 53.6 °F 82% 30.19 in 10.0 mi NE 9.2 mph - N/A   Clear
2:15 AM 59.0 °F 51.8 °F 77% 30.19 in 10.0 mi NE 6.9 mph - N/A   Clear
2:35 AM 57.2 °F 51.8 °F 82% 30.18 in 10.0 mi NE 10.4 mph - N/A   Clear
2:55 AM 57.2 °F 51.8 °F 82% 30.18 in 10.0 mi NE 9.2 mph - N/A   Clear
3:15 AM 57.2 °F 51.8 °F 82% 30.17 in 10.0 mi NE 9.2 mph - N/A   Clear
3:35 AM 57.2 °F 50.0 °F 77% 30.17 in 10.0 mi NE 9.2 mph - N/A   Clear
3:55 AM 57.2 °F 50.0 °F 77% 30.17 in 10.0 mi NE 8.1 mph - N/A   Clear
4:15 AM 57.2 °F 50.0 °F 77% 30.17 in 10.0 mi NNE 6.9 mph - N/A   Clear
4:35 AM 57.2 °F 50.0 °F 77% 30.16 in 10.0 mi NNE 9.2 mph - N/A   Clear
4:55 AM 55.4 °F 50.0 °F 82% 30.16 in 10.0 mi NNE 9.2 mph - N/A   Mostly Cloudy
5:15 AM 57.2 °F 50.0 °F 77% 30.16 in 10.0 mi NNE 9.2 mph - N/A   Partly Cloudy
5:35 AM 55.4 °F 50.0 °F 82% 30.16 in 10.0 mi NNE 10.4 mph - N/A   Mostly Cloudy
5:55 AM 55.4 °F 50.0 °F 82% 30.16 in 10.0 mi NNE 10.4 mph - N/A   Overcast
6:15 AM 57.2 °F 50.0 °F 77% 30.17 in 10.0 mi NNE 9.2 mph - N/A   Overcast
6:35 AM 55.4 °F 48.2 °F 77% 30.17 in 10.0 mi NNE 10.4 mph - N/A   Overcast
6:55 AM 55.4 °F 48.2 °F 77% 30.17 in 10.0 mi NNE 11.5 mph - N/A   Mostly Cloudy
7:15 AM 55.4 °F 48.2 °F 77% 30.18 in 10.0 mi NE 11.5 mph - N/A   Mostly Cloudy
7:35 AM 55.4 °F 50.0 °F 82% 30.19 in 9.0 mi NE 12.7 mph - N/A   Overcast
7:55 AM 55.4 °F 50.0 °F 82% 30.19 in 1.5 mi NE 12.7 mph 18.4 mph N/A   Overcast
8:15 AM 55.4 °F 51.8 °F 88% 30.19 in 4.0 mi NNE 11.5 mph 16.1 mph 0.01 in   Mostly Cloudy
8:35 AM 55.4 °F 51.8 °F 88% 30.19 in 9.0 mi NNE 12.7 mph - 0.01 in   Overcast
8:55 AM 57.2 °F 51.8 °F 82% 30.19 in 10.0 mi NNE 9.2 mph - 0.01 in   Overcast
9:15 AM 57.2 °F 51.8 °F 82% 30.19 in 10.0 mi NE 8.1 mph - N/A   Mostly Cloudy
9:35 AM 59.0 °F 51.8 °F 77% 30.20 in 10.0 mi NE 6.9 mph - N/A   Mostly Cloudy
9:55 AM 60.8 °F 53.6 °F 77% 30.20 in 10.0 mi NE 9.2 mph - N/A   Scattered Clouds
10:15 AM 60.8 °F 53.6 °F 77% 30.20 in 10.0 mi ENE 11.5 mph - N/A   Mostly Cloudy
10:35 AM 60.8 °F 53.6 °F 77% 30.20 in 10.0 mi NE 12.7 mph - N/A   Partly Cloudy
10:55 AM 62.6 °F 53.6 °F 72% 30.20 in 10.0 mi NE 13.8 mph - N/A   Clear
11:15 AM 64.4 °F 53.6 °F 68% 30.20 in 10.0 mi NE 13.8 mph - N/A   Clear
11:35 AM 64.4 °F 53.6 °F 68% 30.19 in 10.0 mi ENE 18.4 mph 21.9 mph N/A   Clear
11:55 AM 66.2 °F 53.6 °F 64% 30.19 in 10.0 mi NE 18.4 mph 21.9 mph N/A   Clear
12:15 PM 66.2 °F 53.6 °F 64% 30.19 in 10.0 mi NE 15.0 mph 19.6 mph N/A   Partly Cloudy
12:35 PM 66.2 °F 53.6 °F 64% 30.18 in 10.0 mi ENE 16.1 mph 23.0 mph N/A   Partly Cloudy
12:55 PM 68.0 °F 53.6 °F 60% 30.18 in 10.0 mi ENE 13.8 mph 20.7 mph N/A   Clear
1:15 PM 69.8 °F 53.6 °F 56% 30.18 in 10.0 mi ENE 17.3 mph 21.9 mph N/A   Scattered Clouds
1:35 PM 71.6 °F 55.4 °F 57% 30.17 in 10.0 mi ENE 17.3 mph 26.5 mph N/A   Mostly Cloudy
1:55 PM 71.6 °F 53.6 °F 53% 30.16 in 10.0 mi ENE 15.0 mph 24.2 mph N/A   Partly Cloudy
2:15 PM 71.6 °F 55.4 °F 57% 30.16 in 10.0 mi ENE 18.4 mph 21.9 mph N/A   Partly Cloudy
2:35 PM 71.6 °F 55.4 °F 57% 30.16 in 10.0 mi ENE 20.7 mph 26.5 mph N/A   Mostly Cloudy
2:55 PM 66.2 °F 53.6 °F 64% 30.17 in 10.0 mi East 20.7 mph 27.6 mph N/A   Mostly Cloudy
3:15 PM 64.4 °F 55.4 °F 73% 30.17 in 10.0 mi ENE 13.8 mph - N/A   Mostly Cloudy
3:35 PM 66.2 °F 55.4 °F 68% 30.16 in 10.0 mi ENE 12.7 mph 19.6 mph N/A   Overcast
3:55 PM 66.2 °F 55.4 °F 68% 30.15 in 10.0 mi East 11.5 mph 17.3 mph N/A   Overcast
4:15 PM 66.2 °F 55.4 °F 68% 30.14 in 10.0 mi NE 12.7 mph - N/A   Overcast
4:35 PM 68.0 °F 55.4 °F 64% 30.13 in 10.0 mi NE 11.5 mph 19.6 mph N/A   Mostly Cloudy
4:55 PM 68.0 °F 55.4 °F 64% 30.13 in 10.0 mi NE 15.0 mph 18.4 mph N/A   Mostly Cloudy
5:15 PM 69.8 °F 55.4 °F 60% 30.13 in 10.0 mi ENE 16.1 mph - N/A   Scattered Clouds
5:35 PM 69.8 °F 53.6 °F 56% 30.13 in 10.0 mi NE 11.5 mph 18.4 mph N/A   Mostly Cloudy
5:55 PM 69.8 °F 55.4 °F 60% 30.12 in 10.0 mi NE 8.1 mph - N/A   Mostly Cloudy
6:15 PM 68.0 °F 53.6 °F 60% 30.12 in 10.0 mi ENE 8.1 mph - N/A   Mostly Cloudy
6:35 PM 68.0 °F 53.6 °F 60% 30.12 in 10.0 mi NE 10.4 mph - N/A   Mostly Cloudy
6:55 PM 66.2 °F 53.6 °F 64% 30.11 in 10.0 mi NE 6.9 mph - N/A   Mostly Cloudy
7:15 PM 66.2 °F 53.6 °F 64% 30.10 in 10.0 mi NE 8.1 mph - N/A   Scattered Clouds
7:35 PM 66.2 °F 53.6 °F 64% 30.10 in 10.0 mi NE 10.4 mph - N/A   Clear
7:55 PM 66.2 °F 51.8 °F 60% 30.11 in 10.0 mi ENE 11.5 mph - N/A   Clear
8:15 PM 64.4 °F 51.8 °F 64% 30.11 in 10.0 mi ENE 8.1 mph - N/A   Partly Cloudy
8:35 PM 64.4 °F 50.0 °F 59% 30.12 in 10.0 mi ENE 9.2 mph - N/A   Clear
8:55 PM 64.4 °F 48.2 °F 56% 30.12 in 10.0 mi ENE 8.1 mph - N/A   Clear
9:15 PM 64.4 °F 48.2 °F 56% 30.13 in 10.0 mi ENE 10.4 mph - N/A   Clear
9:35 PM 62.6 °F 44.6 °F 52% 30.13 in 10.0 mi ENE 18.4 mph 23.0 mph N/A   Clear
9:55 PM 62.6 °F 42.8 °F 48% 30.14 in 10.0 mi ENE 12.7 mph 18.4 mph N/A   Clear
10:15 PM 62.6 °F 42.8 °F 48% 30.15 in 10.0 mi East 16.1 mph 23.0 mph N/A   Clear
10:35 PM 60.8 °F 42.8 °F 52% 30.15 in 10.0 mi ENE 13.8 mph 21.9 mph N/A   Clear
10:55 PM 60.8 °F 41.0 °F 48% 30.15 in 10.0 mi ENE 16.1 mph 26.5 mph N/A   Clear
11:15 PM 59.0 °F 41.0 °F 51% 30.15 in 10.0 mi ENE 13.8 mph - N/A   Clear
11:35 PM 57.2 °F 42.8 °F 59% 30.15 in 10.0 mi ENE 12.7 mph 19.6 mph N/A   Clear
11:55 PM 57.2 °F 42.8 °F 59% 30.15 in 10.0 mi ENE 17.3 mph 23.0 mph N/A   Clear